Time;durP1;ratioP1;P1;durP2;ratioP2;P2;SDS_P1;SDS_P2;PMS_P1;PMS_P2;Temp;Humidity;BMP_temperature;BMP_pressure;BME280_temperature;BME280_humidity;BME280_pressure;Samples;Min_cycle;Max_cycle;Signal;HPM_P1;HPM_P2
2021/12/29 00:00:03;;;;;;;5.53;5.03;;;;;;;;;;5087529;28;20474;-60
2021/12/29 00:02:33;;;;;;;4.40;4.00;;;;;;;;;;5087569;28;20188;-60
2021/12/29 00:04:59;;;;;;;4.63;4.03;;;;;;;;;;5069632;28;20210;-59
2021/12/29 00:07:26;;;;;;;6.13;4.33;;;;;;;;;;5087911;28;20176;-59
2021/12/29 00:09:54;;;;;;;5.10;4.40;;;;;;;;;;5089443;28;20801;-60
2021/12/29 00:12:25;;;;;;;4.77;4.27;;;;;;;;;;5088768;28;20203;-60
2021/12/29 00:14:52;;;;;;;5.03;4.13;;;;;;;;;;5069858;28;20188;-60
2021/12/29 00:17:24;;;;;;;4.97;4.50;;;;;;;;;;5087219;28;20585;-60
2021/12/29 00:19:53;;;;;;;6.30;4.47;;;;;;;;;;5084716;28;20699;-60
2021/12/29 00:22:22;;;;;;;5.43;4.30;;;;;;;;;;5087242;28;20176;-60
2021/12/29 00:24:51;;;;;;;5.10;4.63;;;;;;;;;;5092322;28;20171;-60
2021/12/29 00:27:20;;;;;;;5.07;4.57;;;;;;;;;;5087102;28;20200;-60
2021/12/29 00:29:46;;;;;;;5.27;4.50;;;;;;;;;;5069983;28;20191;-60
2021/12/29 00:32:13;;;;;;;5.23;4.73;;;;;;;;;;5086266;28;20219;-60
2021/12/29 00:34:39;;;;;;;5.73;5.13;;;;;;;;;;5087644;28;20218;-60
2021/12/29 00:37:05;;;;;;;5.00;4.50;;;;;;;;;;5088750;28;20180;-60
2021/12/29 00:39:32;;;;;;;5.93;5.20;;;;;;;;;;5063130;28;20209;-60
2021/12/29 00:41:58;;;;;;;6.87;5.20;;;;;;;;;;5088062;28;20187;-60
2021/12/29 00:44:24;;;;;;;6.23;5.60;;;;;;;;;;5087074;28;20229;-60
2021/12/29 00:46:54;;;;;;;8.53;6.33;;;;;;;;;;5068083;28;20646;-60
2021/12/29 00:49:31;;;;;;;7.23;6.53;;;;;;;;;;5068562;28;20237;-60
2021/12/29 00:52:11;;;;;;;6.53;5.60;;;;;;;;;;5086288;28;20715;-60
2021/12/29 00:54:38;;;;;;;8.47;6.87;;;;;;;;;;5069075;28;20636;-60
2021/12/29 00:57:05;;;;;;;8.63;5.90;;;;;;;;;;5086506;28;20243;-60
2021/12/29 00:59:31;;;;;;;8.27;6.57;;;;;;;;;;5087041;28;20653;-60
2021/12/29 01:01:58;;;;;;;7.57;6.70;;;;;;;;;;5085169;28;20658;-61
2021/12/29 01:04:24;;;;;;;9.73;6.60;;;;;;;;;;5086725;28;20180;-61
2021/12/29 01:06:52;;;;;;;7.20;6.37;;;;;;;;;;5086549;28;20172;-59
2021/12/29 01:09:18;;;;;;;8.23;5.80;;;;;;;;;;5087376;28;20638;-60
2021/12/29 01:11:45;;;;;;;8.93;6.27;;;;;;;;;;5068310;28;20294;-59
2021/12/29 01:14:11;;;;;;;5.90;5.30;;;;;;;;;;5083085;28;20179;-60
2021/12/29 01:16:38;;;;;;;7.30;5.53;;;;;;;;;;5074452;28;20186;-60
2021/12/29 01:19:09;;;;;;;6.07;5.10;;;;;;;;;;5068062;28;20184;-60
2021/12/29 01:21:36;;;;;;;7.53;5.50;;;;;;;;;;5086904;28;20244;-59
2021/12/29 01:24:03;;;;;;;8.30;5.93;;;;;;;;;;5086491;28;20229;-59
2021/12/29 01:26:29;;;;;;;9.63;6.30;;;;;;;;;;5069589;28;20176;-59
2021/12/29 01:28:55;;;;;;;5.93;5.33;;;;;;;;;;5086738;28;20179;-59
2021/12/29 01:31:21;;;;;;;7.13;5.73;;;;;;;;;;5070428;28;20686;-60
2021/12/29 01:33:48;;;;;;;7.57;5.77;;;;;;;;;;5068411;28;20321;-60
2021/12/29 01:36:14;;;;;;;5.73;4.97;;;;;;;;;;5085767;28;20229;-59
2021/12/29 01:38:40;;;;;;;5.50;4.90;;;;;;;;;;5086774;28;20172;-61
2021/12/29 01:41:07;;;;;;;6.63;4.47;;;;;;;;;;5071880;28;20188;-62
2021/12/29 01:43:33;;;;;;;7.73;4.73;;;;;;;;;;5088912;28;20240;-60
2021/12/29 01:45:59;;;;;;;5.40;4.90;;;;;;;;;;5083745;28;20186;-60
2021/12/29 01:48:29;;;;;;;7.50;4.80;;;;;;;;;;5075387;28;20194;-60
2021/12/29 01:50:56;;;;;;;8.57;4.80;;;;;;;;;;5066274;28;20294;-60
2021/12/29 01:53:27;;;;;;;5.63;5.07;;;;;;;;;;5086210;28;20644;-60
2021/12/29 01:55:54;;;;;;;6.13;4.60;;;;;;;;;;5085388;28;20179;-60
2021/12/29 01:58:21;;;;;;;5.17;4.67;;;;;;;;;;5063075;28;20182;-60
2021/12/29 02:00:48;;;;;;;5.07;4.57;;;;;;;;;;5087066;28;20194;-61
2021/12/29 02:03:14;;;;;;;5.10;4.60;;;;;;;;;;5089145;28;20308;-60
2021/12/29 02:05:41;;;;;;;4.17;3.77;;;;;;;;;;5088483;28;20762;-60
2021/12/29 02:08:08;;;;;;;4.60;3.70;;;;;;;;;;5090462;28;20195;-61
2021/12/29 02:10:42;;;;;;;4.27;3.87;;;;;;;;;;5085636;28;20843;-59
2021/12/29 02:13:09;;;;;;;5.70;4.57;;;;;;;;;;5067060;28;20807;-58
2021/12/29 02:15:39;;;;;;;4.77;3.80;;;;;;;;;;5088272;28;20183;-59
2021/12/29 02:18:12;;;;;;;3.93;3.20;;;;;;;;;;5064839;28;20235;-60
2021/12/29 02:20:39;;;;;;;3.67;3.37;;;;;;;;;;5083508;28;20183;-60
2021/12/29 02:23:19;;;;;;;4.23;3.80;;;;;;;;;;5072021;28;20549;-61
2021/12/29 02:25:50;;;;;;;3.60;3.30;;;;;;;;;;5090124;28;20268;-60
2021/12/29 02:28:23;;;;;;;3.70;3.40;;;;;;;;;;5088938;28;20229;-60
2021/12/29 02:30:59;;;;;;;3.60;3.30;;;;;;;;;;5087039;28;20287;-60
2021/12/29 02:33:26;;;;;;;5.30;3.77;;;;;;;;;;5066280;28;20161;-59
2021/12/29 02:35:55;;;;;;;4.83;3.83;;;;;;;;;;5090813;28;20278;-60
2021/12/29 02:38:26;;;;;;;3.40;3.03;;;;;;;;;;5087821;28;20187;-59
2021/12/29 02:40:53;;;;;;;3.55;3.25;;;;;;;;;;5090030;28;20421;-60
2021/12/29 02:43:22;;;;;;;3.57;3.27;;;;;;;;;;5090042;28;20184;-60
2021/12/29 02:45:51;;;;;;;4.23;3.83;;;;;;;;;;5088251;28;20179;-60
2021/12/29 02:48:18;;;;;;;3.27;2.77;;;;;;;;;;5079724;28;20680;-60
2021/12/29 02:50:45;;;;;;;3.57;3.27;;;;;;;;;;5090233;28;20574;-61
2021/12/29 02:53:12;;;;;;;5.93;3.43;;;;;;;;;;5088063;28;20281;-60
2021/12/29 02:55:39;;;;;;;4.43;4.03;;;;;;;;;;5070191;28;20650;-60
2021/12/29 02:58:06;;;;;;;3.73;3.43;;;;;;;;;;5093249;28;20233;-60
2021/12/29 03:00:32;;;;;;;3.80;3.30;;;;;;;;;;5071246;28;20182;-60
2021/12/29 03:02:58;;;;;;;6.17;3.43;;;;;;;;;;5088442;28;20179;-60
2021/12/29 03:05:26;;;;;;;4.83;4.43;;;;;;;;;;5087787;28;20448;-60
2021/12/29 03:07:54;;;;;;;4.53;4.00;;;;;;;;;;5087822;28;20172;-61
2021/12/29 03:10:23;;;;;;;4.67;4.17;;;;;;;;;;5090283;28;20171;-60
2021/12/29 03:12:50;;;;;;;4.33;3.93;;;;;;;;;;5071645;28;20179;-59
2021/12/29 03:15:16;;;;;;;4.93;4.43;;;;;;;;;;5089627;28;20160;-60
2021/12/29 03:17:42;;;;;;;4.73;4.23;;;;;;;;;;5089423;28;20203;-60
2021/12/29 03:20:10;;;;;;;4.27;3.90;;;;;;;;;;5087519;28;20604;-60
2021/12/29 03:22:36;;;;;;;5.60;3.77;;;;;;;;;;5073011;28;20175;-60
2021/12/29 03:25:02;;;;;;;6.70;5.10;;;;;;;;;;5089101;28;20176;-59
2021/12/29 03:27:28;;;;;;;5.37;4.47;;;;;;;;;;5070884;28;20187;-60
2021/12/29 03:29:55;;;;;;;4.93;4.07;;;;;;;;;;5086681;28;20184;-60
2021/12/29 03:32:36;;;;;;;4.90;4.40;;;;;;;;;;5078568;28;20199;-60
2021/12/29 03:35:02;;;;;;;6.30;4.87;;;;;;;;;;5087027;28;20168;-60
2021/12/29 03:37:32;;;;;;;6.03;5.00;;;;;;;;;;5063322;28;20176;-60
2021/12/29 03:39:58;;;;;;;5.70;5.20;;;;;;;;;;5064530;28;20228;-60
2021/12/29 03:42:24;;;;;;;6.03;5.43;;;;;;;;;;5088430;28;20191;-60
2021/12/29 03:44:51;;;;;;;6.60;5.30;;;;;;;;;;5079435;28;20187;-60
2021/12/29 03:47:17;;;;;;;6.13;5.53;;;;;;;;;;5067565;28;20279;-59
2021/12/29 03:49:43;;;;;;;6.87;5.53;;;;;;;;;;5072561;28;20176;-60
2021/12/29 03:52:13;;;;;;;6.30;5.70;;;;;;;;;;5029920;28;1493731;-60
2021/12/29 03:54:39;;;;;;;6.10;5.50;;;;;;;;;;5051776;28;20188;-60
2021/12/29 03:57:06;;;;;;;7.20;6.23;;;;;;;;;;5069354;28;20231;-60
2021/12/29 03:59:32;;;;;;;7.80;6.50;;;;;;;;;;5064510;28;20200;-59
2021/12/29 04:02:00;;;;;;;6.67;5.97;;;;;;;;;;5068740;28;20226;-60
2021/12/29 04:04:27;;;;;;;9.07;6.87;;;;;;;;;;5068038;28;20640;-59
2021/12/29 04:06:53;;;;;;;7.60;6.40;;;;;;;;;;5049976;28;20208;-59
2021/12/29 04:09:22;;;;;;;7.97;6.90;;;;;;;;;;5068406;28;20185;-59
2021/12/29 04:11:50;;;;;;;7.60;6.23;;;;;;;;;;5055521;28;20204;-59
2021/12/29 04:14:25;;;;;;;9.00;7.63;;;;;;;;;;5052073;28;20662;-60
2021/12/29 04:16:56;;;;;;;7.90;6.87;;;;;;;;;;5060397;28;20176;-59
2021/12/29 04:19:32;;;;;;;9.33;8.00;;;;;;;;;;5068238;28;20545;-60
2021/12/29 04:21:58;;;;;;;8.60;7.33;;;;;;;;;;5069301;28;20188;-59
2021/12/29 04:24:26;;;;;;;7.73;6.20;;;;;;;;;;5052560;28;20180;-59
2021/12/29 04:26:52;;;;;;;8.60;7.23;;;;;;;;;;5071032;28;20271;-59
2021/12/29 04:29:25;;;;;;;8.17;6.97;;;;;;;;;;5050749;28;20208;-59
2021/12/29 04:31:54;;;;;;;9.50;7.80;;;;;;;;;;5071472;28;20200;-60
2021/12/29 04:34:21;;;;;;;8.80;7.47;;;;;;;;;;5040440;28;20574;-60
2021/12/29 04:36:47;;;;;;;8.20;6.80;;;;;;;;;;5067443;28;20655;-60
2021/12/29 04:39:13;;;;;;;8.97;7.53;;;;;;;;;;5050450;28;20180;-60
2021/12/29 04:41:39;;;;;;;9.60;7.40;;;;;;;;;;5068733;28;20268;-59
2021/12/29 04:44:06;;;;;;;9.70;7.90;;;;;;;;;;5069795;28;20207;-59
2021/12/29 04:46:39;;;;;;;11.07;8.43;;;;;;;;;;5063104;28;20181;-59
2021/12/29 04:49:09;;;;;;;9.73;8.03;;;;;;;;;;5067469;28;20161;-60
2021/12/29 04:51:36;;;;;;;8.80;7.40;;;;;;;;;;5054684;28;20232;-60
2021/12/29 04:54:08;;;;;;;9.80;6.77;;;;;;;;;;5072501;28;20167;-59
2021/12/29 04:56:34;;;;;;;9.17;7.50;;;;;;;;;;5090211;28;20581;-59
2021/12/29 04:59:00;;;;;;;9.80;7.57;;;;;;;;;;5071720;28;20541;-60
2021/12/29 05:01:36;;;;;;;8.33;7.20;;;;;;;;;;5069135;28;20198;-59
2021/12/29 05:04:03;;;;;;;8.63;7.10;;;;;;;;;;5081100;28;20219;-59
2021/12/29 05:09:14;;;;;;;7.83;6.60;;;;;;;;;;5087063;28;20694;-60
2021/12/29 05:11:40;;;;;;;8.30;6.53;;;;;;;;;;5069756;28;20286;-60
2021/12/29 05:14:06;;;;;;;7.67;6.00;;;;;;;;;;5086874;28;20191;-60
2021/12/29 05:16:36;;;;;;;7.43;6.50;;;;;;;;;;5057694;28;20308;-60
2021/12/29 05:19:03;;;;;;;9.07;7.00;;;;;;;;;;5071780;28;20203;-60
2021/12/29 05:21:30;;;;;;;6.83;5.67;;;;;;;;;;5073267;28;20188;-60
2021/12/29 05:23:56;;;;;;;7.40;6.27;;;;;;;;;;5071360;28;20527;-60
2021/12/29 05:26:23;;;;;;;7.07;6.37;;;;;;;;;;5072742;28;20286;-61
2021/12/29 05:28:53;;;;;;;6.83;5.70;;;;;;;;;;5082592;28;20644;-63
2021/12/29 05:31:25;;;;;;;5.57;4.93;;;;;;;;;;5077483;28;20658;-61
2021/12/29 05:33:51;;;;;;;6.27;5.67;;;;;;;;;;5074423;28;20210;-61
2021/12/29 05:36:20;;;;;;;8.30;6.40;;;;;;;;;;5082893;28;20199;-61
2021/12/29 05:38:49;;;;;;;6.10;5.27;;;;;;;;;;5070386;28;20176;-61
2021/12/29 05:41:15;;;;;;;6.50;5.33;;;;;;;;;;5068290;28;20722;-61
2021/12/29 05:43:45;;;;;;;6.13;5.53;;;;;;;;;;5070525;28;20545;-61
2021/12/29 05:46:11;;;;;;;6.10;5.47;;;;;;;;;;5064262;28;20176;-61
2021/12/29 05:48:38;;;;;;;8.17;6.23;;;;;;;;;;5087576;28;20249;-61
2021/12/29 05:51:08;;;;;;;6.20;5.60;;;;;;;;;;5089137;28;20214;-61
2021/12/29 05:53:34;;;;;;;7.37;6.50;;;;;;;;;;5058683;28;20248;-60
2021/12/29 05:56:01;;;;;;;7.43;6.50;;;;;;;;;;5049096;28;20203;-60
2021/12/29 05:58:27;;;;;;;8.87;7.23;;;;;;;;;;5066117;28;20188;-60
2021/12/29 06:00:53;;;;;;;8.10;6.93;;;;;;;;;;5062958;28;22343;-60
2021/12/29 06:03:20;;;;;;;10.07;7.33;;;;;;;;;;5059818;28;20173;-60
2021/12/29 06:05:47;;;;;;;10.83;7.73;;;;;;;;;;5062180;28;20180;-60
2021/12/29 06:08:14;;;;;;;8.97;7.97;;;;;;;;;;5047401;28;20188;-60
2021/12/29 06:10:41;;;;;;;8.63;7.60;;;;;;;;;;5048115;28;20193;-60
2021/12/29 06:13:07;;;;;;;9.60;8.17;;;;;;;;;;5048316;28;20188;-60
2021/12/29 06:15:34;;;;;;;11.20;9.13;;;;;;;;;;5048113;28;20196;-60
2021/12/29 06:18:01;;;;;;;10.60;8.67;;;;;;;;;;5040758;28;20706;-60
2021/12/29 06:20:27;;;;;;;12.23;9.60;;;;;;;;;;5066263;28;20411;-60
2021/12/29 06:22:54;;;;;;;12.77;10.13;;;;;;;;;;5047663;28;20267;-60
2021/12/29 06:25:20;;;;;;;13.80;10.13;;;;;;;;;;5048564;28;20169;-60
2021/12/29 06:27:51;;;;;;;12.97;9.00;;;;;;;;;;5048764;28;20640;-60
2021/12/29 06:30:18;;;;;;;14.20;11.57;;;;;;;;;;5065213;28;20532;-60
2021/12/29 06:32:45;;;;;;;17.67;11.77;;;;;;;;;;5045999;28;20192;-59
2021/12/29 06:35:13;;;;;;;13.43;10.40;;;;;;;;;;5047816;28;20267;-60
2021/12/29 06:37:39;;;;;;;13.67;11.63;;;;;;;;;;5047814;28;20878;-60
2021/12/29 06:40:10;;;;;;;14.17;11.00;;;;;;;;;;5064832;28;20180;-59
2021/12/29 06:42:50;;;;;;;13.40;11.50;;;;;;;;;;5048807;28;20531;-59
2021/12/29 06:45:19;;;;;;;15.17;12.20;;;;;;;;;;5068588;28;20172;-60
2021/12/29 06:47:45;;;;;;;16.07;12.27;;;;;;;;;;5037923;28;20184;-59
2021/12/29 06:50:14;;;;;;;15.63;12.37;;;;;;;;;;5069015;28;20184;-59
2021/12/29 06:52:49;;;;;;;14.93;12.07;;;;;;;;;;5084698;28;20236;-59
2021/12/29 06:55:15;;;;;;;15.87;12.33;;;;;;;;;;5059961;28;20168;-59
2021/12/29 06:57:42;;;;;;;19.60;13.50;;;;;;;;;;5058648;28;20204;-59
2021/12/29 07:00:09;;;;;;;16.13;12.23;;;;;;;;;;5103881;28;20559;-60
2021/12/29 07:02:35;;;;;;;14.33;11.70;;;;;;;;;;5071139;28;20179;-59
2021/12/29 07:05:02;;;;;;;15.40;12.40;;;;;;;;;;5102135;28;20577;-59
2021/12/29 07:07:28;;;;;;;15.70;12.67;;;;;;;;;;5107120;28;20564;-59
2021/12/29 07:09:55;;;;;;;14.63;12.43;;;;;;;;;;5071548;28;20182;-59
2021/12/29 07:12:21;;;;;;;16.87;13.87;;;;;;;;;;5066424;28;20208;-59
2021/12/29 07:14:48;;;;;;;16.37;12.90;;;;;;;;;;5089526;28;20259;-59
2021/12/29 07:17:17;;;;;;;14.50;12.83;;;;;;;;;;5079223;28;20180;-59
2021/12/29 07:19:47;;;;;;;18.87;12.77;;;;;;;;;;5070462;28;20223;-59
2021/12/29 07:22:16;;;;;;;17.27;13.70;;;;;;;;;;5067707;28;20186;-59
2021/12/29 07:24:46;;;;;;;14.77;13.10;;;;;;;;;;5070192;28;20749;-59
2021/12/29 07:27:13;;;;;;;17.87;13.30;;;;;;;;;;5086830;28;20179;-60
2021/12/29 07:29:42;;;;;;;19.60;14.03;;;;;;;;;;5070579;28;20438;-59
2021/12/29 07:32:09;;;;;;;18.00;13.70;;;;;;;;;;5067702;28;20326;-59
2021/12/29 07:34:36;;;;;;;17.47;14.20;;;;;;;;;;5092542;28;20176;-59
2021/12/29 07:37:02;;;;;;;17.07;13.33;;;;;;;;;;5070778;28;20663;-59
2021/12/29 07:39:29;;;;;;;18.40;14.47;;;;;;;;;;5076566;28;20198;-59
2021/12/29 07:41:59;;;;;;;17.30;13.87;;;;;;;;;;5086908;28;20236;-59
2021/12/29 07:44:28;;;;;;;17.37;13.47;;;;;;;;;;5071592;28;20269;-59
2021/12/29 07:46:56;;;;;;;18.47;14.63;;;;;;;;;;5082552;28;20176;-59
2021/12/29 07:49:23;;;;;;;21.33;13.57;;;;;;;;;;5070206;28;20623;-59
2021/12/29 07:51:49;;;;;;;19.67;15.17;;;;;;;;;;5065989;28;20262;-59
2021/12/29 07:54:16;;;;;;;17.90;14.30;;;;;;;;;;5049449;28;20180;-59
2021/12/29 07:56:43;;;;;;;18.90;13.47;;;;;;;;;;5066754;28;20629;-59
2021/12/29 07:59:10;;;;;;;18.13;13.97;;;;;;;;;;5068376;28;20545;-58
2021/12/29 08:01:36;;;;;;;19.70;15.50;;;;;;;;;;5046642;28;20695;-60
2021/12/29 08:04:09;;;;;;;18.27;14.80;;;;;;;;;;5068327;28;20277;-60
2021/12/29 08:06:35;;;;;;;18.50;14.87;;;;;;;;;;5045148;28;20817;-60
2021/12/29 08:09:02;;;;;;;18.70;14.10;;;;;;;;;;5061070;28;20525;-59
2021/12/29 08:11:29;;;;;;;16.33;13.83;;;;;;;;;;5049264;28;20585;-59
2021/12/29 08:13:55;;;;;;;18.60;13.83;;;;;;;;;;5045897;28;20183;-59
2021/12/29 08:16:22;;;;;;;17.43;13.60;;;;;;;;;;5067667;28;20172;-59
2021/12/29 08:18:49;;;;;;;15.67;13.90;;;;;;;;;;5048285;28;20294;-61
2021/12/29 08:21:16;;;;;;;18.23;14.17;;;;;;;;;;5043519;28;20613;-60
2021/12/29 08:23:42;;;;;;;18.07;14.03;;;;;;;;;;5059333;28;20691;-59
2021/12/29 08:26:09;;;;;;;18.33;13.93;;;;;;;;;;5058334;28;20208;-59
2021/12/29 08:28:35;;;;;;;20.77;13.70;;;;;;;;;;5050404;28;20671;-60
2021/12/29 08:31:03;;;;;;;20.07;14.47;;;;;;;;;;5067075;28;20624;-59
2021/12/29 08:33:29;;;;;;;17.80;14.27;;;;;;;;;;5048092;28;20215;-59
2021/12/29 08:35:55;;;;;;;15.77;13.83;;;;;;;;;;5067893;28;20172;-59
2021/12/29 08:38:22;;;;;;;15.53;13.63;;;;;;;;;;5066711;28;20644;-59
2021/12/29 08:40:51;;;;;;;17.47;13.33;;;;;;;;;;5049037;28;20671;-59
2021/12/29 08:43:18;;;;;;;18.00;13.27;;;;;;;;;;5065987;28;20184;-59
2021/12/29 08:45:46;;;;;;;18.20;14.40;;;;;;;;;;5047642;28;20211;-59
2021/12/29 08:48:13;;;;;;;20.10;14.17;;;;;;;;;;5051841;28;20172;-59
2021/12/29 08:50:42;;;;;;;17.10;13.50;;;;;;;;;;5056152;28;20183;-60
2021/12/29 08:53:09;;;;;;;17.23;13.73;;;;;;;;;;5054779;28;20261;-59
2021/12/29 08:55:36;;;;;;;15.83;12.10;;;;;;;;;;5083465;28;20589;-59
2021/12/29 08:58:06;;;;;;;19.20;13.70;;;;;;;;;;5052254;28;20686;-60
2021/12/29 09:00:33;;;;;;;15.60;13.23;;;;;;;;;;5047554;28;20627;-60
2021/12/29 09:02:59;;;;;;;20.70;13.00;;;;;;;;;;5047284;28;20273;-60
2021/12/29 09:05:25;;;;;;;18.10;13.50;;;;;;;;;;5048174;28;20238;-60
2021/12/29 09:07:52;;;;;;;15.97;13.47;;;;;;;;;;5048889;28;20184;-60
2021/12/29 09:10:19;;;;;;;18.53;12.80;;;;;;;;;;5046528;28;20206;-61
2021/12/29 09:12:47;;;;;;;14.77;12.57;;;;;;;;;;5061812;28;20204;-60
2021/12/29 09:15:18;;;;;;;18.53;13.63;;;;;;;;;;5046143;28;20807;-60
2021/12/29 09:17:44;;;;;;;14.63;11.30;;;;;;;;;;5046001;28;20184;-60
2021/12/29 09:20:15;;;;;;;16.40;12.63;;;;;;;;;;5060982;28;20698;-61
2021/12/29 09:22:42;;;;;;;14.83;11.87;;;;;;;;;;5048221;28;20185;-60
2021/12/29 09:25:09;;;;;;;13.60;11.40;;;;;;;;;;5071403;28;20171;-60
2021/12/29 09:27:35;;;;;;;15.60;11.57;;;;;;;;;;5054646;28;20245;-60
2021/12/29 09:30:02;;;;;;;14.87;11.53;;;;;;;;;;5045898;28;20252;-60
2021/12/29 09:32:31;;;;;;;15.40;11.63;;;;;;;;;;5047014;28;20199;-60
2021/12/29 09:34:59;;;;;;;14.87;11.63;;;;;;;;;;5067673;28;20630;-60
2021/12/29 09:37:26;;;;;;;14.70;12.17;;;;;;;;;;5065411;28;20493;-60
2021/12/29 09:39:52;;;;;;;13.17;11.77;;;;;;;;;;5049127;28;20184;-60
2021/12/29 09:42:18;;;;;;;13.43;10.83;;;;;;;;;;5066425;28;20181;-60
2021/12/29 09:44:45;;;;;;;16.83;11.70;;;;;;;;;;5066082;28;20693;-60
2021/12/29 09:47:12;;;;;;;14.00;10.60;;;;;;;;;;5049009;28;20584;-60
2021/12/29 09:49:39;;;;;;;13.90;11.03;;;;;;;;;;5065091;28;20188;-60
2021/12/29 09:52:06;;;;;;;12.43;10.53;;;;;;;;;;5049222;28;20216;-60
2021/12/29 09:54:32;;;;;;;14.10;10.47;;;;;;;;;;5069698;28;20176;-60
2021/12/29 09:57:00;;;;;;;13.20;10.20;;;;;;;;;;5066626;28;20227;-60
2021/12/29 09:59:27;;;;;;;11.33;9.27;;;;;;;;;;5053550;28;20502;-60
2021/12/29 10:01:53;;;;;;;13.27;10.43;;;;;;;;;;5066744;28;20184;-60
2021/12/29 10:04:20;;;;;;;14.50;10.97;;;;;;;;;;5057385;28;20176;-60
2021/12/29 10:06:46;;;;;;;13.23;10.20;;;;;;;;;;5060751;28;20262;-60
2021/12/29 10:09:14;;;;;;;15.07;11.60;;;;;;;;;;5053353;28;20176;-60
2021/12/29 10:11:44;;;;;;;13.30;10.03;;;;;;;;;;5048837;28;20231;-60
2021/12/29 10:14:12;;;;;;;12.80;9.67;;;;;;;;;;5049075;28;20175;-59
2021/12/29 10:16:39;;;;;;;12.77;10.27;;;;;;;;;;5048922;28;20212;-59
2021/12/29 10:19:13;;;;;;;12.53;9.73;;;;;;;;;;5056126;28;20177;-59
2021/12/29 10:21:44;;;;;;;10.97;9.07;;;;;;;;;;5070721;28;20176;-60
2021/12/29 10:24:10;;;;;;;11.37;9.13;;;;;;;;;;5080974;28;20183;-60
2021/12/29 10:26:38;;;;;;;12.77;9.83;;;;;;;;;;5071572;28;20536;-60
2021/12/29 10:29:07;;;;;;;11.70;8.87;;;;;;;;;;5054664;28;20324;-60
2021/12/29 10:31:33;;;;;;;11.03;8.87;;;;;;;;;;5058358;28;20207;-60
2021/12/29 10:34:04;;;;;;;11.13;9.33;;;;;;;;;;5073985;28;20173;-59
2021/12/29 10:36:32;;;;;;;9.87;8.80;;;;;;;;;;5054830;28;20173;-60
2021/12/29 10:38:58;;;;;;;11.23;9.00;;;;;;;;;;5073494;28;20177;-60
2021/12/29 10:41:25;;;;;;;11.07;9.30;;;;;;;;;;5075635;28;20205;-60
2021/12/29 10:44:02;;;;;;;11.07;9.50;;;;;;;;;;5059409;28;20169;-60
2021/12/29 10:46:31;;;;;;;13.53;9.00;;;;;;;;;;5057474;28;20196;-60
2021/12/29 10:48:59;;;;;;;11.80;9.33;;;;;;;;;;5058196;28;20230;-60
2021/12/29 10:51:54;;;;;;;13.13;8.23;;;;;;;;;;5073037;28;20211;-60
2021/12/29 10:54:24;;;;;;;10.67;9.30;;;;;;;;;;5049096;28;20186;-60
2021/12/29 10:57:02;;;;;;;10.70;9.23;;;;;;;;;;5068016;28;20191;-60
2021/12/29 10:59:31;;;;;;;11.73;8.90;;;;;;;;;;5055013;28;20556;-60
2021/12/29 11:01:57;;;;;;;10.20;8.03;;;;;;;;;;5060004;28;20533;-60
2021/12/29 11:04:24;;;;;;;9.27;7.80;;;;;;;;;;5070052;28;20222;-60
2021/12/29 11:06:56;;;;;;;10.20;8.07;;;;;;;;;;5064707;28;20181;-60
2021/12/29 11:09:36;;;;;;;9.33;7.90;;;;;;;;;;5068821;28;20241;-61
2021/12/29 11:12:09;;;;;;;9.57;8.57;;;;;;;;;;5065658;28;20211;-60
2021/12/29 11:14:37;;;;;;;9.00;8.10;;;;;;;;;;5067122;28;20180;-60
2021/12/29 11:17:15;;;;;;;9.07;7.93;;;;;;;;;;5066974;28;20186;-60
2021/12/29 11:19:49;;;;;;;12.10;8.07;;;;;;;;;;5067701;28;20643;-60
2021/12/29 11:22:17;;;;;;;8.60;7.67;;;;;;;;;;5060448;28;20180;-60
2021/12/29 11:24:44;;;;;;;9.23;7.13;;;;;;;;;;5064584;28;21029;-60
2021/12/29 11:27:17;;;;;;;9.63;7.53;;;;;;;;;;5063925;28;20207;-60
2021/12/29 11:29:52;;;;;;;10.63;8.13;;;;;;;;;;5063961;28;20594;-60
2021/12/29 11:32:20;;;;;;;8.43;7.30;;;;;;;;;;5064059;28;20200;-60
2021/12/29 11:34:56;;;;;;;9.73;8.40;;;;;;;;;;5066492;28;20176;-60
2021/12/29 11:37:24;;;;;;;9.83;7.50;;;;;;;;;;5045341;28;20223;-60
2021/12/29 11:39:50;;;;;;;9.40;7.50;;;;;;;;;;5062020;28;20173;-60
2021/12/29 11:42:17;;;;;;;8.40;7.43;;;;;;;;;;5065400;28;20183;-60
2021/12/29 11:44:44;;;;;;;9.23;8.33;;;;;;;;;;5060536;28;20655;-60
2021/12/29 11:47:11;;;;;;;8.40;6.93;;;;;;;;;;5064199;28;20184;-60
2021/12/29 11:49:38;;;;;;;7.83;7.00;;;;;;;;;;5042458;28;20185;-60
2021/12/29 11:52:10;;;;;;;9.70;7.80;;;;;;;;;;5061315;28;20234;-60
2021/12/29 11:54:48;;;;;;;10.03;7.40;;;;;;;;;;5074838;28;20643;-60
2021/12/29 11:57:15;;;;;;;9.63;6.63;;;;;;;;;;5049818;28;20202;-60
2021/12/29 11:59:42;;;;;;;9.40;6.73;;;;;;;;;;5054530;28;20222;-60
2021/12/29 12:02:08;;;;;;;9.50;7.87;;;;;;;;;;5050655;28;20880;-60
2021/12/29 12:04:36;;;;;;;8.63;7.10;;;;;;;;;;5053205;28;20176;-60
2021/12/29 12:07:07;;;;;;;12.97;6.83;;;;;;;;;;5060445;28;20176;-61
2021/12/29 12:09:47;;;;;;;6.70;6.00;;;;;;;;;;5077102;28;20281;-60
2021/12/29 12:12:14;;;;;;;8.83;6.40;;;;;;;;;;5074378;28;20211;-61
2021/12/29 12:14:46;;;;;;;9.30;7.23;;;;;;;;;;5074877;28;20172;-60
2021/12/29 12:17:16;;;;;;;9.90;6.57;;;;;;;;;;5077470;28;20524;-60
2021/12/29 12:19:43;;;;;;;7.70;6.77;;;;;;;;;;5077223;28;20592;-60
2021/12/29 12:22:13;;;;;;;11.30;6.57;;;;;;;;;;5047473;28;20207;-60
2021/12/29 12:25:08;;;;;;;9.40;6.27;;;;;;;;;;5070172;28;20620;-60
2021/12/29 12:27:42;;;;;;;8.50;6.47;;;;;;;;;;5052081;28;20563;-60
2021/12/29 12:30:19;;;;;;;8.67;5.97;;;;;;;;;;5053975;28;20176;-60
2021/12/29 12:32:53;;;;;;;8.73;6.83;;;;;;;;;;5048627;28;20269;-60
2021/12/29 12:35:31;;;;;;;6.87;5.93;;;;;;;;;;5075954;28;20214;-60
2021/12/29 12:37:58;;;;;;;8.27;6.60;;;;;;;;;;5055980;28;20208;-60
2021/12/29 12:40:29;;;;;;;6.50;5.50;;;;;;;;;;5055214;28;20260;-60
2021/12/29 12:43:00;;;;;;;9.23;6.30;;;;;;;;;;5072702;28;20508;-60
2021/12/29 12:45:26;;;;;;;7.40;5.50;;;;;;;;;;5059808;28;20572;-60
2021/12/29 12:48:01;;;;;;;8.70;5.30;;;;;;;;;;5055646;28;20187;-60
2021/12/29 12:50:28;;;;;;;7.73;6.07;;;;;;;;;;5050962;28;20180;-60
2021/12/29 12:52:56;;;;;;;7.60;6.47;;;;;;;;;;5081109;28;20249;-60
2021/12/29 12:55:23;;;;;;;9.80;5.67;;;;;;;;;;5085101;28;20175;-59
2021/12/29 12:57:50;;;;;;;10.57;5.73;;;;;;;;;;5067662;28;20200;-60
2021/12/29 13:00:29;;;;;;;7.53;5.93;;;;;;;;;;5062849;28;20179;-60
2021/12/29 13:02:56;;;;;;;7.83;6.10;;;;;;;;;;5084831;28;20183;-61
2021/12/29 13:05:24;;;;;;;7.03;5.57;;;;;;;;;;5068338;28;20629;-59
2021/12/29 13:08:05;;;;;;;7.43;5.70;;;;;;;;;;5068040;28;20287;-60
2021/12/29 13:10:34;;;;;;;8.67;5.13;;;;;;;;;;5064082;28;20190;-60
2021/12/29 13:13:09;;;;;;;7.47;5.20;;;;;;;;;;5082423;28;20199;-59
2021/12/29 13:15:36;;;;;;;7.10;5.57;;;;;;;;;;5083398;28;20182;-60
2021/12/29 13:18:02;;;;;;;8.57;5.20;;;;;;;;;;5079712;28;20172;-60
2021/12/29 13:20:29;;;;;;;8.07;5.27;;;;;;;;;;5083331;28;20267;-60
2021/12/29 13:22:55;;;;;;;6.20;5.03;;;;;;;;;;5065229;28;20183;-60
2021/12/29 13:25:31;;;;;;;7.33;5.27;;;;;;;;;;5067640;28;20262;-60
2021/12/29 13:28:03;;;;;;;7.03;4.33;;;;;;;;;;5064565;28;20172;-60
2021/12/29 13:30:41;;;;;;;7.07;4.43;;;;;;;;;;5065515;28;20263;-60
2021/12/29 13:33:07;;;;;;;8.33;4.63;;;;;;;;;;5063233;28;20199;-60
2021/12/29 13:35:35;;;;;;;5.60;4.70;;;;;;;;;;5085694;28;20702;-60
2021/12/29 13:38:06;;;;;;;7.90;4.63;;;;;;;;;;5084343;28;20176;-60
2021/12/29 13:40:37;;;;;;;6.20;3.87;;;;;;;;;;5085803;28;20172;-60
2021/12/29 13:43:09;;;;;;;4.87;4.37;;;;;;;;;;5065605;28;20244;-60
2021/12/29 13:45:35;;;;;;;6.87;4.60;;;;;;;;;;5084613;28;20179;-60
2021/12/29 13:48:03;;;;;;;6.97;4.30;;;;;;;;;;5065456;28;20186;-61
2021/12/29 13:50:32;;;;;;;6.60;4.63;;;;;;;;;;5049665;28;20198;-60
2021/12/29 13:53:07;;;;;;;4.50;4.07;;;;;;;;;;5062649;28;20923;-60
2021/12/29 13:55:41;;;;;;;6.38;4.28;;;;;;;;;;5050886;28;20428;-60
2021/12/29 13:58:08;;;;;;;6.53;4.20;;;;;;;;;;5075174;28;20171;-60
2021/12/29 14:00:35;;;;;;;5.53;3.73;;;;;;;;;;5072556;28;20544;-60
2021/12/29 14:03:02;;;;;;;5.40;3.90;;;;;;;;;;5055583;28;20168;-60
2021/12/29 14:05:35;;;;;;;4.37;3.73;;;;;;;;;;5068650;28;20190;-60
2021/12/29 14:08:03;;;;;;;6.97;3.73;;;;;;;;;;5052111;28;20176;-60
2021/12/29 14:10:29;;;;;;;7.97;4.40;;;;;;;;;;5053703;28;20181;-60
2021/12/29 14:13:03;;;;;;;7.47;4.30;;;;;;;;;;5051939;28;20204;-60
2021/12/29 14:15:31;;;;;;;6.47;3.93;;;;;;;;;;5051611;28;20874;-59
2021/12/29 14:17:58;;;;;;;5.40;3.90;;;;;;;;;;5063889;28;20177;-59
2021/12/29 14:20:25;;;;;;;5.87;3.70;;;;;;;;;;5033526;28;20169;-59
2021/12/29 14:23:01;;;;;;;4.37;3.23;;;;;;;;;;5049261;28;20180;-59
2021/12/29 14:25:35;;;;;;;8.33;4.13;;;;;;;;;;5066317;28;20176;-60
2021/12/29 14:28:02;;;;;;;6.73;3.80;;;;;;;;;;5044461;28;20666;-59
2021/12/29 14:30:28;;;;;;;6.37;3.70;;;;;;;;;;5070118;28;20586;-60
2021/12/29 14:33:01;;;;;;;9.13;3.80;;;;;;;;;;5061533;28;20692;-60
2021/12/29 14:35:29;;;;;;;4.03;3.40;;;;;;;;;;5052417;28;20195;-60
2021/12/29 14:37:56;;;;;;;6.77;3.33;;;;;;;;;;5075408;28;20177;-60
2021/12/29 14:40:30;;;;;;;6.47;3.10;;;;;;;;;;5070791;28;20196;-61
2021/12/29 14:43:08;;;;;;;4.93;3.10;;;;;;;;;;5051985;28;20188;-60
2021/12/29 14:45:35;;;;;;;7.37;3.60;;;;;;;;;;5050835;28;20549;-60